Terminal Aerodrome Forecast
Issued by NWS Wichita, KS

Home | Current Version | Previous Version | Text Only | Print | Product List | Glossary Off
Versions: 1 2 3 4 5 6 7 8 9 10 11 12 13 14 15 16 17 18 19 20

019
FTUS43 KICT 171620 AAB
TAFICT
TAF AMD
KICT 171620Z 1716/1812 20017G25KT P6SM SCT013 BKN200
     FM171800 20017G22KT P6SM SCT015
     FM172000 21017KT P6SM BKN250
     FM172300 19009KT P6SM BKN250=

USA.gov is the U.S. government's official web portal to all federal, state and local government web resources and services.